createdAt,value
2023-12-18T00:04:00.134Z,8.37
2023-12-18T00:09:02.717Z,8.10
2023-12-18T00:14:05.138Z,7.73
2023-12-18T00:19:08.327Z,7.63
2023-12-18T00:24:10.862Z,7.43
2023-12-18T00:29:13.284Z,7.33
2023-12-18T00:34:15.954Z,7.60
2023-12-18T00:39:18.647Z,7.20
2023-12-18T00:44:21.073Z,6.60
2023-12-18T00:49:23.797Z,6.30
2023-12-18T00:54:26.542Z,6.70
2023-12-18T00:59:29.436Z,6.00
2023-12-18T01:04:32.015Z,6.23
2023-12-18T01:09:35.149Z,6.20
2023-12-18T01:14:37.720Z,6.30
2023-12-18T01:19:40.516Z,6.20
2023-12-18T01:24:43.148Z,6.83
2023-12-18T01:29:45.626Z,6.10
2023-12-18T01:34:48.047Z,7.20
2023-12-18T01:39:50.570Z,6.80
2023-12-18T01:44:53.074Z,6.63
2023-12-18T01:49:55.556Z,6.73
2023-12-18T01:54:58.532Z,6.57
2023-12-18T02:00:01.347Z,6.57
2023-12-18T02:05:04.035Z,6.97
2023-12-18T02:10:06.948Z,7.20
2023-12-18T02:15:09.841Z,7.37
2023-12-18T02:20:12.842Z,7.33
2023-12-18T02:25:19.110Z,7.00
2023-12-18T02:30:24.119Z,7.67
2023-12-18T02:35:27.074Z,7.33
2023-12-18T02:40:29.925Z,7.90
2023-12-18T02:45:32.625Z,7.73
2023-12-18T02:50:35.185Z,7.87
2023-12-18T02:55:37.611Z,7.60
2023-12-18T03:00:40.255Z,8.47
2023-12-18T03:05:43.102Z,8.00
2023-12-18T03:10:45.573Z,8.43
2023-12-18T03:15:48.054Z,11.07
2023-12-18T03:20:50.627Z,7.53
2023-12-18T03:25:53.163Z,8.73
2023-12-18T03:30:55.652Z,8.97
2023-12-18T03:35:58.262Z,9.13
2023-12-18T03:41:01.060Z,9.07
2023-12-18T03:46:03.607Z,7.97
2023-12-18T03:51:06.776Z,9.00
2023-12-18T03:56:09.340Z,8.70
2023-12-18T04:01:11.900Z,7.80
2023-12-18T04:06:14.541Z,7.67
2023-12-18T04:11:17.554Z,8.57
2023-12-18T04:16:20.086Z,10.13
2023-12-18T04:21:22.565Z,8.93
2023-12-18T04:26:25.114Z,11.03
2023-12-18T04:31:27.658Z,9.60
2023-12-18T04:36:30.254Z,10.03
2023-12-18T04:41:32.801Z,10.43
2023-12-18T04:46:36.529Z,31.13
2023-12-18T04:51:39.049Z,10.07
2023-12-18T04:56:41.807Z,9.30
2023-12-18T05:01:44.242Z,16.87
2023-12-18T05:06:46.721Z,10.97
2023-12-18T05:11:49.213Z,12.17
2023-12-18T05:16:51.815Z,10.90
2023-12-18T05:21:54.270Z,10.00
2023-12-18T05:26:56.790Z,10.87
2023-12-18T05:31:59.265Z,11.77
2023-12-18T05:37:03.516Z,10.77
2023-12-18T05:42:08.000Z,10.70
2023-12-18T05:47:11.837Z,10.37
2023-12-18T05:52:14.372Z,10.23
2023-12-18T05:57:18.639Z,9.10
2023-12-18T06:02:21.244Z,11.17
2023-12-18T06:07:23.809Z,11.13
2023-12-18T06:12:26.255Z,10.00
2023-12-18T06:17:28.744Z,10.30
2023-12-18T06:22:31.256Z,10.90
2023-12-18T06:27:33.746Z,10.97
2023-12-18T06:32:36.383Z,13.37
2023-12-18T06:37:38.858Z,11.03
2023-12-18T06:42:41.694Z,11.27
2023-12-18T06:47:44.381Z,12.80
2023-12-18T06:52:46.934Z,14.53
2023-12-18T06:57:49.813Z,43.73
2023-12-18T07:02:52.427Z,19.47
2023-12-18T07:07:54.927Z,19.83
2023-12-18T07:12:57.443Z,30.67
2023-12-18T07:18:00.099Z,58.57
2023-12-18T07:23:02.690Z,63.90
2023-12-18T07:28:10.499Z,32.03
2023-12-18T07:33:13.132Z,41.27
2023-12-18T07:38:15.752Z,28.67
2023-12-18T07:43:18.392Z,30.40
2023-12-18T07:48:23.395Z,35.30
2023-12-18T07:53:26.092Z,18.07
2023-12-18T07:58:28.491Z,19.83
2023-12-18T08:03:31.205Z,20.90
2023-12-18T08:08:33.738Z,13.67
2023-12-18T08:13:40.217Z,19.70
2023-12-18T08:18:44.073Z,16.17
2023-12-18T08:23:46.793Z,17.30
2023-12-18T08:28:49.611Z,16.50
2023-12-18T08:33:52.271Z,15.43
2023-12-18T08:38:54.760Z,16.30
2023-12-18T08:44:05.036Z,17.47
2023-12-18T08:49:09.200Z,16.90
2023-12-18T08:54:11.954Z,36.27
2023-12-18T08:59:14.389Z,26.10
2023-12-18T09:04:16.900Z,22.90
2023-12-18T09:09:20.154Z,21.60
2023-12-18T09:14:22.610Z,20.93
2023-12-18T09:19:25.462Z,20.03
2023-12-18T09:24:28.202Z,20.60
2023-12-18T09:29:30.627Z,22.43
2023-12-18T09:34:33.373Z,23.87
2023-12-18T09:39:36.031Z,19.37
2023-12-18T09:44:39.392Z,24.87
2023-12-18T09:49:42.148Z,21.17
2023-12-18T09:54:44.931Z,26.60
2023-12-18T09:59:47.947Z,21.00
2023-12-18T10:04:50.491Z,25.33
2023-12-18T10:09:53.848Z,27.23
2023-12-18T10:14:56.391Z,23.30
2023-12-18T10:19:59.017Z,25.80
2023-12-18T10:25:03.548Z,27.03
2023-12-18T10:30:10.417Z,27.83
2023-12-18T10:35:13.067Z,26.10
2023-12-18T10:40:20.571Z,46.80
2023-12-18T10:45:23.917Z,24.70
2023-12-18T10:50:29.837Z,22.23
2023-12-18T10:55:34.686Z,32.07
2023-12-18T11:00:39.111Z,38.20
2023-12-18T11:05:43.756Z,21.77
2023-12-18T11:10:46.819Z,40.17
2023-12-18T11:16:10.264Z,19.57
2023-12-18T11:21:12.840Z,20.23
2023-12-18T11:26:15.286Z,20.67
2023-12-18T11:31:21.664Z,17.40
2023-12-18T11:36:25.848Z,22.13
2023-12-18T11:41:43.047Z,21.73
2023-12-18T11:46:51.735Z,21.23
2023-12-18T11:51:54.323Z,21.90
2023-12-18T11:56:57.296Z,36.17
2023-12-18T12:02:00.819Z,27.30
2023-12-18T12:07:03.354Z,51.40
2023-12-18T12:12:06.206Z,41.67
2023-12-18T12:17:09.166Z,29.90
2023-12-18T12:22:13.693Z,25.77
2023-12-18T12:27:16.467Z,23.50
2023-12-18T12:32:20.694Z,33.33
2023-12-18T12:37:23.834Z,32.37
2023-12-18T12:42:28.092Z,22.23
2023-12-18T12:47:30.727Z,28.50
2023-12-18T12:52:37.616Z,26.33
2023-12-18T12:57:40.282Z,25.13
2023-12-18T13:02:42.890Z,29.63
2023-12-18T13:07:45.476Z,33.60
2023-12-18T13:12:49.279Z,22.20
2023-12-18T13:17:51.922Z,23.43
2023-12-18T13:22:55.887Z,22.47
2023-12-18T13:27:58.611Z,23.43
2023-12-18T13:33:01.246Z,21.93
2023-12-18T13:38:03.999Z,23.27
2023-12-18T13:43:06.457Z,21.53
2023-12-18T13:48:09.773Z,22.77
2023-12-18T13:53:12.605Z,21.43
2023-12-18T13:58:15.777Z,27.03
2023-12-18T14:03:18.653Z,22.40
2023-12-18T14:08:21.375Z,22.33
2023-12-18T14:13:25.125Z,22.17
2023-12-18T14:18:27.751Z,21.47
2023-12-18T14:23:30.350Z,21.03
2023-12-18T14:28:32.920Z,31.00
2023-12-18T14:33:35.903Z,114.50
2023-12-18T14:38:38.617Z,30.53
2023-12-18T14:43:41.048Z,23.40
2023-12-18T14:48:43.732Z,84.40
2023-12-18T14:53:46.367Z,36.90
2023-12-18T14:58:48.775Z,57.37
2023-12-18T15:03:55.494Z,38.27
2023-12-18T15:08:58.122Z,26.77
2023-12-18T15:14:00.551Z,27.80
2023-12-18T15:19:04.973Z,27.10
2023-12-18T15:24:10.067Z,30.40
2023-12-18T15:29:13.341Z,33.67
2023-12-18T15:34:15.882Z,29.53
2023-12-18T15:39:19.393Z,33.37
2023-12-18T15:44:22.810Z,28.80
2023-12-18T15:49:28.100Z,30.43
2023-12-18T15:54:31.186Z,29.03
2023-12-18T15:59:33.723Z,30.23
2023-12-18T16:04:36.358Z,23.50
2023-12-18T16:09:38.815Z,20.40
2023-12-18T16:14:41.244Z,21.60
2023-12-18T16:19:43.816Z,22.40
2023-12-18T16:24:46.342Z,27.13
2023-12-18T16:29:49.210Z,22.50
2023-12-18T16:34:52.101Z,24.77
2023-12-18T16:39:58.584Z,30.03
2023-12-18T16:45:01.564Z,33.00
2023-12-18T16:50:04.137Z,19.43
2023-12-18T16:55:06.774Z,25.73
2023-12-18T17:00:13.412Z,24.47
2023-12-18T17:05:16.749Z,28.27
2023-12-18T17:10:19.337Z,32.53
2023-12-18T17:15:22.208Z,22.10
2023-12-18T17:20:26.227Z,27.20
2023-12-18T17:25:29.704Z,25.43
2023-12-18T17:30:32.212Z,44.10
2023-12-18T17:35:34.717Z,26.73
2023-12-18T17:40:37.300Z,23.87
2023-12-18T17:45:41.416Z,29.20
2023-12-18T17:50:44.074Z,24.77
2023-12-18T17:55:46.635Z,31.60
2023-12-18T18:00:49.170Z,31.40
2023-12-18T18:05:52.122Z,30.97
2023-12-18T18:10:54.737Z,60.23
2023-12-18T18:15:57.659Z,34.60
2023-12-18T18:21:00.115Z,35.57
2023-12-18T18:26:02.817Z,28.87
2023-12-18T18:31:05.529Z,27.47
2023-12-18T18:36:10.141Z,28.33
2023-12-18T18:41:12.655Z,19.33
2023-12-18T18:46:17.053Z,22.50
2023-12-18T18:51:19.537Z,27.90
2023-12-18T18:56:25.902Z,23.67
2023-12-18T19:01:30.005Z,40.97
2023-12-18T19:06:33.007Z,27.57
2023-12-18T19:11:35.539Z,17.70
2023-12-18T19:16:38.058Z,31.30
2023-12-18T19:21:41.114Z,27.07
2023-12-18T19:26:43.590Z,16.50
2023-12-18T19:31:47.237Z,20.07
2023-12-18T19:36:50.551Z,17.30
2023-12-18T19:41:54.185Z,13.37
2023-12-18T19:46:56.648Z,19.13
2023-12-18T19:51:59.080Z,20.30
2023-12-18T19:57:01.558Z,15.50
2023-12-18T20:02:05.043Z,13.03
2023-12-18T20:07:07.768Z,18.30
2023-12-18T20:12:10.305Z,14.80
2023-12-18T20:17:14.092Z,11.57
2023-12-18T20:22:16.569Z,13.10
2023-12-18T20:27:19.206Z,15.93
2023-12-18T20:32:21.990Z,14.13
2023-12-18T20:37:24.424Z,13.47
2023-12-18T20:42:26.974Z,12.80
2023-12-18T20:47:29.459Z,12.80
2023-12-18T20:52:32.076Z,11.90
2023-12-18T20:57:36.189Z,16.73
2023-12-18T21:02:38.893Z,14.67
2023-12-18T21:07:42.079Z,13.63
2023-12-18T21:12:44.907Z,13.97
2023-12-18T21:17:47.557Z,23.73
2023-12-18T21:22:51.976Z,23.40
2023-12-18T21:27:54.624Z,23.07
2023-12-18T21:32:57.205Z,15.87
2023-12-18T21:37:59.660Z,14.50
2023-12-18T21:43:02.330Z,14.23
2023-12-18T21:48:05.848Z,19.10
2023-12-18T21:53:08.497Z,16.87
2023-12-18T21:58:10.961Z,16.20
2023-12-18T22:03:18.245Z,17.60
2023-12-18T22:08:21.836Z,11.73
2023-12-18T22:13:29.707Z,12.97
2023-12-18T22:18:32.183Z,13.67
2023-12-18T22:23:34.959Z,13.90
2023-12-18T22:28:38.482Z,11.20
2023-12-18T22:33:41.066Z,10.47
2023-12-18T22:38:45.954Z,10.93
2023-12-18T22:43:52.154Z,9.47
2023-12-18T22:48:54.723Z,10.50
2023-12-18T22:53:57.371Z,12.23
2023-12-18T22:58:59.791Z,9.87
2023-12-18T23:04:02.454Z,8.97
2023-12-18T23:09:04.933Z,8.37
2023-12-18T23:14:08.070Z,9.40
2023-12-18T23:19:10.632Z,9.40
2023-12-18T23:24:13.086Z,8.53
2023-12-18T23:29:15.558Z,10.20
2023-12-18T23:34:19.863Z,8.07
2023-12-18T23:39:22.517Z,8.97
2023-12-18T23:44:24.940Z,8.73
2023-12-18T23:49:28.951Z,8.13
2023-12-18T23:54:31.502Z,9.27
2023-12-18T23:59:34.202Z,9.20
